createdAt,value
2023-04-27T00:02:11.971Z,83.46
2023-04-27T00:04:39.135Z,84.69
2023-04-27T00:07:08.551Z,83.73
2023-04-27T00:09:38.487Z,82.50
2023-04-27T00:12:11.109Z,83.61
2023-04-27T00:14:37.940Z,83.29
2023-04-27T00:17:07.458Z,82.93
2023-04-27T00:19:35.003Z,83.43
2023-04-27T00:22:06.055Z,82.80
2023-04-27T00:24:34.954Z,82.41
2023-04-27T00:27:03.394Z,82.53
2023-04-27T00:29:33.572Z,82.43
2023-04-27T00:32:03.622Z,83.38
2023-04-27T00:34:31.239Z,84.63
2023-04-27T00:36:58.259Z,84.44
2023-04-27T00:39:25.509Z,84.08
2023-04-27T00:41:52.747Z,84.07
2023-04-27T00:44:28.305Z,84.47
2023-04-27T00:46:56.440Z,84.48
2023-04-27T00:49:24.198Z,85.28
2023-04-27T00:51:50.974Z,85.02
2023-04-27T00:54:23.976Z,84.60
2023-04-27T00:56:52.225Z,84.93
2023-04-27T00:59:23.342Z,85.16
2023-04-27T01:01:52.629Z,84.73
2023-04-27T01:04:20.147Z,85.29
2023-04-27T01:06:47.725Z,83.74
2023-04-27T01:09:14.890Z,85.32
2023-04-27T01:11:41.779Z,85.64
2023-04-27T01:14:08.517Z,85.73
2023-04-27T01:16:35.867Z,84.90
2023-04-27T01:19:02.667Z,84.09
2023-04-27T01:21:29.432Z,83.28
2023-04-27T01:24:01.613Z,83.41
2023-04-27T01:26:29.201Z,82.97
2023-04-27T01:28:56.968Z,83.15
2023-04-27T01:31:31.564Z,83.22
2023-04-27T01:33:58.897Z,81.78
2023-04-27T01:36:25.706Z,82.10
2023-04-27T01:38:55.947Z,83.11
2023-04-27T01:41:25.068Z,83.23
2023-04-27T01:43:52.170Z,84.14
2023-04-27T01:46:19.702Z,83.81
2023-04-27T01:48:47.152Z,84.43
2023-04-27T01:51:15.394Z,83.71
2023-04-27T01:53:47.403Z,84.46
2023-04-27T01:56:17.074Z,84.32
2023-04-27T01:58:44.419Z,84.34
2023-04-27T02:01:12.745Z,84.31
2023-04-27T02:03:40.215Z,85.23
2023-04-27T02:06:12.666Z,84.92
2023-04-27T02:08:39.871Z,84.70
2023-04-27T02:11:09.279Z,84.97
2023-04-27T02:13:36.192Z,84.27
2023-04-27T02:16:05.385Z,84.53
2023-04-27T02:18:35.329Z,84.39
2023-04-27T02:21:12.978Z,85.18
2023-04-27T02:23:41.058Z,84.22
2023-04-27T02:26:08.497Z,84.35
2023-04-27T02:28:39.651Z,84.77
2023-04-27T02:33:50.338Z,84.14
2023-04-27T02:36:17.565Z,85.33
2023-04-27T02:38:45.078Z,85.36
2023-04-27T02:41:13.156Z,84.22
2023-04-27T02:43:43.642Z,84.65
2023-04-27T02:46:10.588Z,84.84
2023-04-27T02:48:40.909Z,84.52
2023-04-27T02:51:07.732Z,83.98
2023-04-27T02:53:34.595Z,83.67
2023-04-27T02:56:01.669Z,84.17
2023-04-27T02:58:28.667Z,84.32
2023-04-27T03:00:56.346Z,85.35
2023-04-27T03:03:24.218Z,84.38
2023-04-27T03:05:51.174Z,85.21
2023-04-27T03:08:20.211Z,85.10
2023-04-27T03:10:50.375Z,84.03
2023-04-27T03:13:20.661Z,83.60
2023-04-27T03:15:47.671Z,86.43
2023-04-27T03:18:17.883Z,86.98
2023-04-27T03:20:45.578Z,86.50
2023-04-27T03:23:14.854Z,86.33
2023-04-27T03:25:42.079Z,86.28
2023-04-27T03:28:09.383Z,85.90
2023-04-27T03:30:36.656Z,85.47
2023-04-27T03:33:03.910Z,85.50
2023-04-27T03:35:30.753Z,85.32
2023-04-27T03:37:57.381Z,85.50
2023-04-27T03:40:24.185Z,84.72
2023-04-27T03:42:50.902Z,85.65
2023-04-27T03:45:19.243Z,84.65
2023-04-27T03:47:46.075Z,85.92
2023-04-27T03:50:14.367Z,84.87
2023-04-27T03:52:44.799Z,85.14
2023-04-27T03:55:11.989Z,84.69
2023-04-27T03:57:41.778Z,85.70
2023-04-27T04:00:12.452Z,84.94
2023-04-27T04:02:43.419Z,85.64
2023-04-27T04:05:19.567Z,85.54
2023-04-27T04:07:49.932Z,85.81
2023-04-27T04:10:18.123Z,85.56
2023-04-27T04:12:47.637Z,86.29
2023-04-27T04:15:20.774Z,85.54
2023-04-27T04:17:50.060Z,85.85
2023-04-27T04:20:22.248Z,85.81
2023-04-27T04:22:49.178Z,86.67
2023-04-27T04:25:16.586Z,87.16
2023-04-27T04:27:45.714Z,86.69
2023-04-27T04:30:13.483Z,86.83
2023-04-27T04:32:41.117Z,86.54
2023-04-27T04:35:08.834Z,87.16
2023-04-27T04:37:36.873Z,87.28
2023-04-27T04:40:11.115Z,86.82
2023-04-27T04:42:39.279Z,86.48
2023-04-27T04:45:08.596Z,86.53
2023-04-27T04:47:36.914Z,86.37
2023-04-27T04:50:04.228Z,86.40
2023-04-27T04:52:32.846Z,86.42
2023-04-27T04:55:03.089Z,86.79
2023-04-27T04:57:33.630Z,87.17
2023-04-27T05:00:02.054Z,86.74
2023-04-27T05:02:29.353Z,86.01
2023-04-27T05:05:01.395Z,86.00
2023-04-27T05:07:28.386Z,85.98
2023-04-27T05:09:58.033Z,85.63
2023-04-27T05:12:31.104Z,85.37
2023-04-27T05:14:58.680Z,86.50
2023-04-27T05:17:27.368Z,86.14
2023-04-27T05:19:58.583Z,86.22
2023-04-27T05:22:27.236Z,86.47
2023-04-27T05:24:54.174Z,84.04
2023-04-27T05:27:21.798Z,84.97
2023-04-27T05:29:50.830Z,84.97
2023-04-27T05:32:19.509Z,85.52
2023-04-27T05:34:49.286Z,86.13
2023-04-27T05:37:16.347Z,84.72
2023-04-27T05:39:43.031Z,84.81
2023-04-27T05:42:09.769Z,84.60
2023-04-27T05:44:36.760Z,83.83
2023-04-27T05:47:03.471Z,83.61
2023-04-27T05:49:30.704Z,82.21
2023-04-27T05:51:59.441Z,81.18
2023-04-27T05:54:27.647Z,80.25
2023-04-27T05:56:54.563Z,82.21
2023-04-27T05:59:22.084Z,82.08
2023-04-27T06:01:49.238Z,80.90
2023-04-27T06:04:16.523Z,80.72
2023-04-27T06:06:44.863Z,80.96
2023-04-27T06:09:11.752Z,80.15
2023-04-27T06:11:38.655Z,79.21
2023-04-27T06:14:05.416Z,79.93
2023-04-27T06:16:32.210Z,81.03
2023-04-27T06:18:59.062Z,80.71
2023-04-27T06:21:26.550Z,79.84
2023-04-27T06:23:53.234Z,79.92
2023-04-27T06:26:19.905Z,80.29
2023-04-27T06:28:46.915Z,77.83
2023-04-27T06:31:14.126Z,79.64
2023-04-27T06:33:41.380Z,76.70
2023-04-27T06:36:08.368Z,78.61
2023-04-27T06:38:35.229Z,77.91
2023-04-27T06:41:03.074Z,78.25
2023-04-27T06:43:30.360Z,77.39
2023-04-27T06:45:57.580Z,75.78
2023-04-27T06:48:24.411Z,73.97
2023-04-27T06:50:52.070Z,73.53
2023-04-27T06:53:18.759Z,75.35
2023-04-27T06:55:47.578Z,73.38
2023-04-27T06:58:15.261Z,73.59
2023-04-27T07:00:42.065Z,74.03
2023-04-27T07:03:08.931Z,68.52
2023-04-27T07:05:35.740Z,68.31
2023-04-27T07:08:05.354Z,66.00
2023-04-27T07:10:33.900Z,66.75
2023-04-27T07:13:01.321Z,69.17
2023-04-27T07:15:28.065Z,68.08
2023-04-27T07:17:54.811Z,70.13
2023-04-27T07:20:21.581Z,67.72
2023-04-27T07:22:48.278Z,70.12
2023-04-27T07:25:15.097Z,68.85
2023-04-27T07:27:41.805Z,67.27
2023-04-27T07:30:10.080Z,66.83
2023-04-27T07:32:39.274Z,68.38
2023-04-27T07:35:06.425Z,70.60
2023-04-27T07:37:33.647Z,73.60
2023-04-27T07:40:00.360Z,70.48
2023-04-27T07:42:27.059Z,69.90
2023-04-27T07:44:54.312Z,69.83
2023-04-27T07:47:21.857Z,70.62
2023-04-27T07:49:48.682Z,65.83
2023-04-27T07:52:15.900Z,66.68
2023-04-27T07:54:42.742Z,64.10
2023-04-27T07:57:13.434Z,63.37
2023-04-27T07:59:40.335Z,63.84
2023-04-27T08:02:19.178Z,65.00
2023-04-27T08:04:47.939Z,66.48
2023-04-27T08:07:17.332Z,66.22
2023-04-27T08:09:44.457Z,65.63
2023-04-27T08:12:11.097Z,67.70
2023-04-27T08:14:37.783Z,68.00
2023-04-27T08:17:04.577Z,66.25
2023-04-27T08:19:31.409Z,67.15
2023-04-27T08:21:58.153Z,62.66
2023-04-27T08:24:24.830Z,61.43
2023-04-27T08:26:51.656Z,65.43
2023-04-27T08:29:27.212Z,63.10
2023-04-27T08:31:58.307Z,61.90
2023-04-27T08:34:25.886Z,63.10
2023-04-27T08:36:53.202Z,64.54
2023-04-27T08:39:20.730Z,63.41
2023-04-27T08:41:47.472Z,66.40
2023-04-27T08:44:14.321Z,62.26
2023-04-27T08:46:41.332Z,62.27
2023-04-27T08:49:08.669Z,65.20
2023-04-27T08:51:35.697Z,65.26
2023-04-27T08:54:02.899Z,65.29
2023-04-27T08:56:30.736Z,62.44
2023-04-27T08:58:58.950Z,64.40
2023-04-27T09:01:27.596Z,64.90
2023-04-27T09:04:07.730Z,64.33
2023-04-27T09:06:35.847Z,63.15
2023-04-27T09:09:04.119Z,63.89
2023-04-27T09:11:35.037Z,62.97
2023-04-27T09:14:04.022Z,62.52
2023-04-27T09:16:31.434Z,59.57
2023-04-27T09:18:58.819Z,60.63
2023-04-27T09:21:27.949Z,54.73
2023-04-27T09:23:57.634Z,56.13
2023-04-27T09:26:27.651Z,54.21
2023-04-27T09:28:58.489Z,47.72
2023-04-27T09:31:36.065Z,51.19
2023-04-27T09:34:04.009Z,56.47
2023-04-27T09:36:32.494Z,57.46
2023-04-27T09:39:02.317Z,55.22
2023-04-27T09:41:29.681Z,52.89
2023-04-27T09:43:58.079Z,54.18
2023-04-27T09:46:26.066Z,54.47
2023-04-27T09:48:53.456Z,56.98
2023-04-27T09:51:20.208Z,52.10
2023-04-27T09:53:51.612Z,52.26
2023-04-27T09:56:26.266Z,51.00
2023-04-27T09:59:03.771Z,47.71
2023-04-27T10:01:45.770Z,51.03
2023-04-27T10:04:27.850Z,53.65
2023-04-27T10:06:58.230Z,49.37
2023-04-27T10:09:25.475Z,48.75
2023-04-27T10:11:54.543Z,45.83
2023-04-27T10:14:22.837Z,49.46
2023-04-27T10:16:55.031Z,53.26
2023-04-27T10:19:23.571Z,52.87
2023-04-27T10:22:07.771Z,51.73
2023-04-27T10:24:36.982Z,51.20
2023-04-27T10:27:05.990Z,51.59
2023-04-27T10:29:41.887Z,49.28
2023-04-27T10:32:12.530Z,51.40
2023-04-27T10:34:40.047Z,53.38
2023-04-27T10:37:11.954Z,51.77
2023-04-27T10:39:49.381Z,50.01
2023-04-27T10:42:28.830Z,50.74
2023-04-27T10:44:59.398Z,50.70
2023-04-27T10:47:42.510Z,49.83
2023-04-27T10:50:14.330Z,49.89
2023-04-27T10:52:44.545Z,51.82
2023-04-27T10:55:16.139Z,48.28
2023-04-27T10:57:51.098Z,50.37
2023-04-27T11:00:47.006Z,49.93
2023-04-27T11:03:15.913Z,48.55
2023-04-27T11:05:45.153Z,47.95
2023-04-27T11:08:14.269Z,50.66
2023-04-27T11:10:50.228Z,47.62
2023-04-27T11:13:22.994Z,47.90
2023-04-27T11:15:55.319Z,50.82
2023-04-27T11:18:24.904Z,46.89
2023-04-27T11:20:54.223Z,49.22
2023-04-27T11:23:25.449Z,48.18
2023-04-27T11:25:52.701Z,53.48
2023-04-27T11:28:24.108Z,50.58
2023-04-27T11:30:58.059Z,51.23
2023-04-27T11:33:24.992Z,50.97
2023-04-27T11:35:52.240Z,50.65
2023-04-27T11:38:19.973Z,49.91
2023-04-27T11:40:47.913Z,48.93
2023-04-27T11:43:15.400Z,47.95
2023-04-27T11:45:46.426Z,47.69
2023-04-27T11:48:16.799Z,48.00
2023-04-27T11:50:48.404Z,46.94
2023-04-27T11:53:16.788Z,45.94
2023-04-27T11:55:45.784Z,49.75
2023-04-27T11:58:18.941Z,48.50
2023-04-27T12:00:47.553Z,48.96
2023-04-27T12:03:14.638Z,46.35
2023-04-27T12:05:52.320Z,44.84
2023-04-27T12:08:19.555Z,47.28
2023-04-27T12:10:46.935Z,45.20
2023-04-27T12:13:14.409Z,44.62
2023-04-27T12:15:42.409Z,43.24
2023-04-27T12:18:09.805Z,44.09
2023-04-27T12:20:36.970Z,43.25
2023-04-27T12:23:03.690Z,43.03
2023-04-27T12:25:30.523Z,43.59
2023-04-27T12:27:57.878Z,44.12
2023-04-27T12:30:24.603Z,43.75
2023-04-27T12:32:51.446Z,44.80
2023-04-27T12:35:18.298Z,45.47
2023-04-27T12:37:45.178Z,44.33
2023-04-27T12:40:12.522Z,44.38
2023-04-27T12:42:39.372Z,44.90
2023-04-27T12:45:06.679Z,45.63
2023-04-27T12:47:53.826Z,43.39
2023-04-27T12:50:21.725Z,42.29
2023-04-27T12:52:48.516Z,43.32
2023-04-27T12:55:29.016Z,43.58
2023-04-27T12:57:59.580Z,44.89
2023-04-27T13:00:26.514Z,45.55
2023-04-27T13:02:53.819Z,47.76
2023-04-27T13:05:22.253Z,45.90
2023-04-27T13:07:49.355Z,46.00
2023-04-27T13:10:16.244Z,46.52
2023-04-27T13:12:43.151Z,47.00
2023-04-27T13:15:10.423Z,46.36
2023-04-27T13:17:37.423Z,46.45
2023-04-27T13:20:04.550Z,45.34
2023-04-27T13:22:31.190Z,43.72
2023-04-27T13:24:58.151Z,43.56
2023-04-27T13:27:28.367Z,44.29
2023-04-27T13:29:55.192Z,44.84
2023-04-27T13:32:22.567Z,43.53
2023-04-27T13:34:49.614Z,45.67
2023-04-27T13:37:16.880Z,44.75
2023-04-27T13:39:43.564Z,46.33
2023-04-27T13:42:10.271Z,44.15
2023-04-27T13:44:37.026Z,44.63
2023-04-27T13:47:03.906Z,43.90
2023-04-27T13:49:30.910Z,42.92
2023-04-27T13:51:58.510Z,42.99
2023-04-27T13:54:25.426Z,44.63
2023-04-27T13:56:52.157Z,46.40
2023-04-27T13:59:18.940Z,47.26
2023-04-27T14:01:45.902Z,49.69
2023-04-27T14:04:12.772Z,45.39
2023-04-27T14:06:39.680Z,45.99
2023-04-27T14:09:06.321Z,46.02
2023-04-27T14:11:42.118Z,47.38
2023-04-27T14:14:12.113Z,50.48
2023-04-27T14:16:38.849Z,47.76
2023-04-27T14:19:05.623Z,49.00
2023-04-27T14:21:32.274Z,49.86
2023-04-27T14:23:59.032Z,47.27
2023-04-27T14:26:26.870Z,47.87
2023-04-27T14:28:57.429Z,47.58
2023-04-27T14:31:26.637Z,47.73
2023-04-27T14:33:53.443Z,47.33
2023-04-27T14:36:20.396Z,47.45
2023-04-27T14:38:47.560Z,47.08
2023-04-27T14:41:14.303Z,49.68
2023-04-27T14:43:41.885Z,48.72
2023-04-27T14:46:20.244Z,47.14
2023-04-27T14:48:48.974Z,46.86
2023-04-27T14:51:16.343Z,49.65
2023-04-27T14:53:44.017Z,50.42
2023-04-27T14:56:11.311Z,51.93
2023-04-27T14:58:37.932Z,50.29
2023-04-27T15:01:04.752Z,51.08
2023-04-27T15:03:34.588Z,49.98
2023-04-27T15:06:02.348Z,49.92
2023-04-27T15:08:30.739Z,51.00
2023-04-27T15:11:00.140Z,51.32
2023-04-27T15:13:28.012Z,50.62
2023-04-27T15:15:56.260Z,49.92
2023-04-27T15:18:23.608Z,49.33
2023-04-27T15:20:57.179Z,49.52
2023-04-27T15:23:24.724Z,49.49
2023-04-27T15:25:55.643Z,51.40
2023-04-27T15:28:22.402Z,50.00
2023-04-27T15:30:49.505Z,51.20
2023-04-27T15:33:17.152Z,52.56
2023-04-27T15:35:44.254Z,49.95
2023-04-27T15:38:12.742Z,51.58
2023-04-27T15:40:40.522Z,48.60
2023-04-27T15:43:07.574Z,49.23
2023-04-27T15:45:34.239Z,48.61
2023-04-27T15:48:01.015Z,49.95
2023-04-27T15:50:27.781Z,49.48
2023-04-27T15:52:54.720Z,49.70
2023-04-27T15:55:22.228Z,51.29
2023-04-27T15:57:49.034Z,49.68
2023-04-27T16:00:19.333Z,51.12
2023-04-27T16:02:46.468Z,51.93
2023-04-27T16:05:14.427Z,50.43
2023-04-27T16:07:43.241Z,52.89
2023-04-27T16:10:10.318Z,52.55
2023-04-27T16:12:37.184Z,50.57
2023-04-27T16:15:04.722Z,52.27
2023-04-27T16:17:37.055Z,50.45
2023-04-27T16:20:06.844Z,50.85
2023-04-27T16:22:34.640Z,51.91
2023-04-27T16:25:01.868Z,51.16
2023-04-27T16:27:28.538Z,50.29
2023-04-27T16:29:56.320Z,51.54
2023-04-27T16:32:23.506Z,51.04
2023-04-27T16:34:50.587Z,52.78
2023-04-27T16:37:17.282Z,50.53
2023-04-27T16:39:43.963Z,50.48
2023-04-27T16:42:10.807Z,50.79
2023-04-27T16:44:38.128Z,50.14
2023-04-27T16:47:04.861Z,51.28
2023-04-27T16:49:31.800Z,53.10
2023-04-27T16:51:58.462Z,51.96
2023-04-27T16:54:25.088Z,53.12
2023-04-27T16:56:53.239Z,53.10
2023-04-27T16:59:22.033Z,53.01
2023-04-27T17:01:48.880Z,52.06
2023-04-27T17:04:15.822Z,51.34
2023-04-27T17:06:45.332Z,49.85
2023-04-27T17:09:12.176Z,51.87
2023-04-27T17:11:38.937Z,51.09
2023-04-27T17:14:05.889Z,51.64
2023-04-27T17:16:32.679Z,53.87
2023-04-27T17:18:59.423Z,52.52
2023-04-27T17:21:27.493Z,53.30
2023-04-27T17:23:54.448Z,54.87
2023-04-27T17:26:21.617Z,53.64
2023-04-27T17:28:49.387Z,54.54
2023-04-27T17:31:19.238Z,54.04
2023-04-27T17:33:46.042Z,52.48
2023-04-27T17:36:13.005Z,53.79
2023-04-27T17:38:39.770Z,54.05
2023-04-27T17:41:06.675Z,53.93
2023-04-27T17:43:33.452Z,54.61
2023-04-27T17:46:00.208Z,54.96
2023-04-27T17:48:26.996Z,55.71
2023-04-27T17:50:53.731Z,54.95
2023-04-27T17:53:20.590Z,55.80
2023-04-27T17:55:47.978Z,56.91
2023-04-27T17:58:15.814Z,57.10
2023-04-27T18:00:43.537Z,60.20
2023-04-27T18:03:11.737Z,61.23
2023-04-27T18:05:38.685Z,61.47
2023-04-27T18:08:05.888Z,61.84
2023-04-27T18:10:32.547Z,63.33
2023-04-27T18:12:59.356Z,63.09
2023-04-27T18:15:26.012Z,63.42
2023-04-27T18:17:52.900Z,63.88
2023-04-27T18:20:19.601Z,64.99
2023-04-27T18:22:46.522Z,65.50
2023-04-27T18:25:13.352Z,66.76
2023-04-27T18:27:40.083Z,67.80
2023-04-27T18:30:10.497Z,67.18
2023-04-27T18:32:37.788Z,66.72
2023-04-27T18:35:05.658Z,66.85
2023-04-27T18:37:32.427Z,66.69
2023-04-27T18:39:59.148Z,67.89
2023-04-27T18:42:25.880Z,67.45
2023-04-27T18:44:54.968Z,68.84
2023-04-27T18:47:21.796Z,68.25
2023-04-27T18:49:48.620Z,68.33
2023-04-27T18:52:15.650Z,69.24
2023-04-27T18:54:42.561Z,69.76
2023-04-27T18:57:09.423Z,70.50
2023-04-27T18:59:38.781Z,69.36
2023-04-27T19:02:07.193Z,70.16
2023-04-27T19:04:34.261Z,70.59
2023-04-27T19:07:02.084Z,71.17
2023-04-27T19:09:29.051Z,70.06
2023-04-27T19:12:02.866Z,71.06
2023-04-27T19:14:30.884Z,70.45
2023-04-27T19:16:57.703Z,71.17
2023-04-27T19:19:25.104Z,71.25
2023-04-27T19:21:52.117Z,71.94
2023-04-27T19:24:18.779Z,71.80
2023-04-27T19:26:46.769Z,72.35
2023-04-27T19:29:13.774Z,72.60
2023-04-27T19:31:41.034Z,72.87
2023-04-27T19:34:07.923Z,71.64
2023-04-27T19:36:34.559Z,71.95
2023-04-27T19:39:01.269Z,74.36
2023-04-27T19:41:28.351Z,74.63
2023-04-27T19:43:55.493Z,74.36
2023-04-27T19:46:22.297Z,74.70
2023-04-27T19:48:49.082Z,74.43
2023-04-27T19:51:15.807Z,75.04
2023-04-27T19:53:42.660Z,75.91
2023-04-27T19:56:09.359Z,75.00
2023-04-27T19:58:37.217Z,75.42
2023-04-27T20:01:04.109Z,76.16
2023-04-27T20:03:31.060Z,76.41
2023-04-27T20:05:58.462Z,75.64
2023-04-27T20:08:25.663Z,76.07
2023-04-27T20:10:52.384Z,75.24
2023-04-27T20:13:19.228Z,74.27
2023-04-27T20:15:46.667Z,74.74
2023-04-27T20:18:13.468Z,74.01
2023-04-27T20:20:42.020Z,74.47
2023-04-27T20:23:08.719Z,73.95
2023-04-27T20:25:36.578Z,74.73
2023-04-27T20:28:03.771Z,74.90
2023-04-27T20:30:30.802Z,75.71
2023-04-27T20:32:57.520Z,76.64
2023-04-27T20:35:24.420Z,76.46
2023-04-27T20:37:52.052Z,76.97
2023-04-27T20:40:19.149Z,77.53
2023-04-27T20:42:46.217Z,78.11
2023-04-27T20:45:13.258Z,77.87
2023-04-27T20:47:40.396Z,78.33
2023-04-27T20:50:07.983Z,78.13
2023-04-27T20:52:35.180Z,77.07
2023-04-27T20:55:03.613Z,77.11
2023-04-27T20:57:30.301Z,77.66
2023-04-27T20:59:57.144Z,79.10
2023-04-27T21:02:23.874Z,79.97
2023-04-27T21:04:51.034Z,80.08
2023-04-27T21:07:17.939Z,79.76
2023-04-27T21:09:44.934Z,79.66
2023-04-27T21:12:14.549Z,80.21
2023-04-27T21:14:41.307Z,78.59
2023-04-27T21:17:08.279Z,78.28
2023-04-27T21:19:35.306Z,79.32
2023-04-27T21:22:02.314Z,79.50
2023-04-27T21:24:29.175Z,80.30
2023-04-27T21:26:55.959Z,80.64
2023-04-27T21:29:22.672Z,81.26
2023-04-27T21:31:49.379Z,81.57
2023-04-27T21:34:16.257Z,80.47
2023-04-27T21:36:43.110Z,80.62
2023-04-27T21:39:09.763Z,81.16
2023-04-27T21:41:37.212Z,80.58
2023-04-27T21:44:04.015Z,79.79
2023-04-27T21:46:30.774Z,79.89
2023-04-27T21:48:57.581Z,81.07
2023-04-27T21:51:24.285Z,80.73
2023-04-27T21:53:51.040Z,80.99
2023-04-27T21:56:17.763Z,81.13
2023-04-27T21:58:44.521Z,81.20
2023-04-27T22:01:13.038Z,81.80
2023-04-27T22:03:39.911Z,80.75
2023-04-27T22:06:07.551Z,80.41
2023-04-27T22:08:35.063Z,79.76
2023-04-27T22:11:01.950Z,80.19
2023-04-27T22:13:28.847Z,80.76
2023-04-27T22:15:55.821Z,80.46
2023-04-27T22:18:22.602Z,80.77
2023-04-27T22:20:49.548Z,80.27
2023-04-27T22:23:16.650Z,80.29
2023-04-27T22:25:43.402Z,81.20
2023-04-27T22:28:11.038Z,81.02
2023-04-27T22:30:38.061Z,81.08
2023-04-27T22:33:04.943Z,80.79
2023-04-27T22:35:32.816Z,80.51
2023-04-27T22:37:59.896Z,80.12
2023-04-27T22:40:26.990Z,80.11
2023-04-27T22:42:55.070Z,80.10
2023-04-27T22:45:23.013Z,80.15
2023-04-27T22:47:50.117Z,78.27
2023-04-27T22:50:17.107Z,78.42
2023-04-27T22:52:44.152Z,78.64
2023-04-27T22:55:12.196Z,78.96
2023-04-27T22:57:39.796Z,79.77
2023-04-27T23:00:11.456Z,80.21
2023-04-27T23:02:42.810Z,80.80
2023-04-27T23:05:11.036Z,80.31
2023-04-27T23:07:38.425Z,81.47
2023-04-27T23:10:06.031Z,81.06
2023-04-27T23:12:33.386Z,81.28
2023-04-27T23:15:00.130Z,80.77
2023-04-27T23:17:33.075Z,79.40
2023-04-27T23:20:01.600Z,80.87
2023-04-27T23:22:28.766Z,79.85
2023-04-27T23:24:55.595Z,80.37
2023-04-27T23:27:23.685Z,80.43
2023-04-27T23:29:50.708Z,80.80
2023-04-27T23:32:17.461Z,80.95
2023-04-27T23:34:44.401Z,80.67
2023-04-27T23:37:11.193Z,80.39
2023-04-27T23:39:38.407Z,80.55
2023-04-27T23:42:05.239Z,81.57
2023-04-27T23:44:32.072Z,81.56
2023-04-27T23:46:58.705Z,81.92
2023-04-27T23:49:25.481Z,79.92
2023-04-27T23:51:52.760Z,80.89
2023-04-27T23:54:19.477Z,80.98
2023-04-27T23:56:46.469Z,80.12
2023-04-27T23:59:15.022Z,81.34
